LGAD/PYR METAR and TAF weather

Enter ICAO airport designator
Station Type Date Time Source
LGAD METAR 2020/06/05 23:50 UTC NOAA

LGAD 052350Z 18012KT 9999 SCT020 BKN080 22/15 Q1004


Station Type Date Time Source
LGAD Decoded METAR 2020/06/05 23:50 UTC NOAA

Andravida Airport , Greece (LGAD) 37-55N 021-17E 14M
Jun 05, 2020 - 07:50 PM EDT / 2020.06.05 2350 UTC
Wind: from the S (180 degrees) at 14 MPH (12 KT):0
Visibility: greater than 7 mile(s):0
Sky conditions: mostly cloudy
Temperature: 71 F (22 C)
Dew Point: 59 F (15 C)
Relative Humidity: 64%
Pressure (altimeter): 29.65 in. Hg (1004 hPa)
ob: LGAD 052350Z 18012KT 9999 SCT020 BKN080 22/15 Q1004
cycle: 0

Station Type Date Time Source
LGAD TAF 2020/03/18 09:39 UTC NOAA

TAF TAF LGAD 180800Z 1809/1821 30006KT 9999 FEW030
BECMG 1816/1818 07010KT

Example: see airport list